CG Bluebell — NODD — position and weather

sailwx.info

Track history (hours):
 
Tides and Currents Weather Stations Pressure Air Temp Water Temp Dewpoint Dewpoint Depression Visibility Wind Speed Wind Dir Waves Ship Positions

CG Bluebell

Last reported at 2018-Jan-18 11:59 UTC. Time now 2018-Jan-18 12:14 UTC.
Position N 45°34' W 122°43'.

Length 29 m; draft 2 m.

Type: Military. MMSI: 369493484.

Date/timePositionNaut miles runAvg speedWind from/ knotsBaromVisibWave heightAir tempDewpointWater temp
2018-Jan-18 11:59N 45°34' W 122°43'0 0.0
2018-Jan-18 11:17N 45°34' W 122°43'0 0.0
2018-Jan-18 10:59N 45°34' W 122°43'0 0.0
2018-Jan-18 10:26N 45°34' W 122°43'0 0.0
2018-Jan-18 09:56N 45°34' W 122°43'0 0.0
2018-Jan-18 09:17N 45°34' W 122°43'0 0.0
2018-Jan-18 08:53N 45°34' W 122°43'0 0.0
2018-Jan-18 08:26N 45°34' W 122°43'0 0.0
2018-Jan-18 07:56N 45°34' W 122°43'0 0.0
2018-Jan-18 07:20N 45°34' W 122°43'0 0.0
2018-Jan-18 06:53N 45°34' W 122°43'0 0.0
2018-Jan-18 06:11N 45°34' W 122°43'0 0.0
2018-Jan-18 05:53N 45°34' W 122°43'0 0.0
2018-Jan-18 05:26N 45°34' W 122°43'0 0.0
2018-Jan-18 04:53N 45°34' W 122°43'0 0.0
2018-Jan-18 03:53N 45°34' W 122°43'0 0.0
2018-Jan-18 03:29N 45°34' W 122°43'0 0.0
2018-Jan-18 02:53N 45°34' W 122°43'0 0.0
2018-Jan-18 02:29N 45°34' W 122°43'0 0.0
2018-Jan-18 01:17N 45°34' W 122°43'0 0.0
2018-Jan-18 00:56N 45°34' W 122°43'0 0.0
2018-Jan-17 23:47N 45°34' W 122°43'  
2018-Jan-12 14:29N 45°34' W 122°43'0 0.0
2018-Jan-12 13:59N 45°34' W 122°43'0 0.0
2018-Jan-12 13:24N 45°34' W 122°43'0 0.0
2018-Jan-12 13:00N 45°34' W 122°43'0 0.0
2018-Jan-12 12:20N 45°34' W 122°43'0 0.0
2018-Jan-12 12:00N 45°34' W 122°43'0 0.0
2018-Jan-12 11:26N 45°34' W 122°43'0 0.0
2018-Jan-12 10:17N 45°34' W 122°43'0 0.0
2018-Jan-12 09:53N 45°34' W 122°43'0 0.0
2018-Jan-12 09:17N 45°34' W 122°43'0 0.0
2018-Jan-12 08:59N 45°34' W 122°43'0 0.0
2018-Jan-12 07:44N 45°34' W 122°43'0 0.0
2018-Jan-12 07:29N 45°34' W 122°43'0 0.0
2018-Jan-12 06:59N 45°34' W 122°43'0 0.0
2018-Jan-12 06:29N 45°34' W 122°43'0 0.0
2018-Jan-12 05:56N 45°34' W 122°43'0 0.0
2018-Jan-12 04:50N 45°34' W 122°43'0 0.0
2018-Jan-12 04:26N 45°34' W 122°43'0 0.0
2018-Jan-12 04:00N 45°34' W 122°43'0 0.0
2018-Jan-12 03:24N 45°34' W 122°43'0 0.0
2018-Jan-12 02:33N 45°34' W 122°43'0 0.0
2018-Jan-12 02:12N 45°34' W 122°43'0 0.0
2018-Jan-12 01:36N 45°34' W 122°43'0 0.0
2018-Jan-12 01:15N 45°34' W 122°43'0 0.0
2018-Jan-12 01:00N 45°34' W 122°43'0 0.0
2018-Jan-12 00:29N 45°34' W 122°43'0 0.0
2018-Jan-11 23:59N 45°34' W 122°43'2 5.1
2018-Jan-11 23:30N 45°36' W 122°46'4 7.6
2018-Jan-11 23:00N 45°39' W 122°46'510.1
2018-Jan-11 22:30N 45°37' W 122°39'510.4
2018-Jan-11 22:00N 45°36' W 122°32'510.4
2018-Jan-11 21:30N 45°34' W 122°25'510.0
2018-Jan-11 21:00N 45°33' W 122°18'510.3
2018-Jan-11 20:30N 45°34' W 122°11'1 0.0
2018-Jan-10 20:18N 45°35' W 122°10'3 7.9
2018-Jan-10 19:57N 45°35' W 122°06'3 6.1
2018-Jan-10 19:30N 45°35' W 122°10'1 1.3
2018-Jan-10 18:59N 45°34' W 122°11'0 0.0
2018-Jan-10 18:30N 45°34' W 122°11'0 0.1
2018-Jan-10 18:00N 45°34' W 122°11'0 0.1
2018-Jan-10 17:30N 45°34' W 122°11'2 4.1
2018-Jan-10 17:00N 45°33' W 122°14'4 7.0
2018-Jan-10 16:30N 45°33' W 122°19'3 5.5
2018-Jan-10 15:56N 45°34' W 122°23'0 0.1
2018-Jan-10 12:34N 45°35' W 122°23'0 0.0
2018-Jan-10 12:10N 45°35' W 122°23'0 0.0
2018-Jan-10 11:58N 45°35' W 122°23'0 0.0
2018-Jan-10 11:28N 45°35' W 122°23'0 0.0
2018-Jan-10 10:40N 45°35' W 122°23'0 0.0
2018-Jan-10 10:28N 45°35' W 122°23'0 0.0
2018-Jan-10 09:22N 45°35' W 122°23'0 0.0
2018-Jan-10 08:52N 45°35' W 122°23'0 0.0
2018-Jan-10 07:35N 45°35' W 122°23'0 0.0
2018-Jan-10 07:29N 45°35' W 122°23'0 0.0
2018-Jan-10 06:59N 45°35' W 122°23'0 0.0
2018-Jan-10 06:17N 45°35' W 122°23'0 0.0
2018-Jan-10 05:58N 45°35' W 122°23'0 0.0
2018-Jan-10 05:28N 45°35' W 122°23'0 0.0
2018-Jan-10 04:52N 45°35' W 122°23'0 0.0
2018-Jan-10 04:28N 45°35' W 122°23'0 0.0
2018-Jan-10 04:00N 45°35' W 122°23'1 2.1
2018-Jan-10 03:30N 45°34' W 122°21'9 9.3
2018-Jan-10 02:32N 45°35' W 122°09'5 2.3
2018-Jan-10 00:24N 45°37' W 122°02'3 3.5
2018-Jan-09 23:29N 45°35' W 122°06'2 1.6
2018-Jan-09 22:23N 45°35' W 122°09'2 4.8
2018-Jan-09 22:00N 45°35' W 122°11'0 0.1
2018-Jan-09 21:29N 45°34' W 122°11'2 4.6
2018-Jan-09 21:00N 45°33' W 122°14'2 4.7
2018-Jan-09 20:30N 45°33' W 122°17'4 7.1
2018-Jan-09 20:00N 45°34' W 122°22'3 6.7
2018-Jan-09 19:30N 45°34' W 122°26'4 7.2
2018-Jan-09 19:00N 45°35' W 122°31'4 7.4
2018-Jan-09 18:30N 45°36' W 122°36'4 7.5
2018-Jan-09 18:00N 45°38' W 122°41'3 5.1
2018-Jan-09 17:31N 45°39' W 122°44'3 5.2
2018-Jan-09 17:00N 45°37' W 122°47'3 6.5
2018-Jan-09 16:30N 45°35' W 122°45'1 0.9
2018-Jan-09 15:27N 45°34' W 122°43'0 0.0
2018-Jan-09 14:55N 45°34' W 122°43'0 0.0
2018-Jan-09 14:22N 45°34' W 122°43'0 0.0
2018-Jan-09 13:57N 45°34' W 122°43'0 0.0
2018-Jan-09 13:28N 45°34' W 122°43'0 0.0
2018-Jan-09 12:58N 45°34' W 122°43'0 0.0
2018-Jan-09 12:30N 45°34' W 122°43'0 0.0
2018-Jan-09 11:52N 45°34' W 122°43'0 0.0
2018-Jan-09 11:24N 45°34' W 122°43'0 0.0
2018-Jan-09 10:52N 45°34' W 122°43'0 0.0
2018-Jan-09 10:25N 45°34' W 122°43'0 0.0
2018-Jan-09 09:55N 45°34' W 122°43'0 0.0
2018-Jan-09 09:22N 45°34' W 122°43'0 0.0
2018-Jan-09 08:46N 45°34' W 122°43'0 0.0
2018-Jan-09 08:28N 45°34' W 122°43'0 0.0
2018-Jan-09 07:52N 45°34' W 122°43'0 0.0
2018-Jan-09 07:19N 45°34' W 122°43'0 0.0
2018-Jan-09 06:40N 45°34' W 122°43'0 0.0
2018-Jan-09 06:19N 45°34' W 122°43'0 0.0
2018-Jan-09 06:00N 45°34' W 122°43'0 0.0
2018-Jan-09 05:24N 45°34' W 122°43'0 0.0
2018-Jan-09 04:58N 45°34' W 122°43'0 0.0
2018-Jan-09 04:22N 45°34' W 122°43'0 0.0
2018-Jan-09 03:57N 45°34' W 122°43'0 0.0
2018-Jan-09 03:25N 45°34' W 122°43'0 0.0
2018-Jan-09 02:57N 45°34' W 122°43'0 0.0
2018-Jan-09 02:25N 45°34' W 122°43'0 0.0
2018-Jan-09 01:49N 45°34' W 122°43'0 0.0
2018-Jan-09 01:28N 45°34' W 122°43'0 0.0
2018-Jan-09 00:40N 45°34' W 122°43'0 0.0
2018-Jan-09 00:22N 45°34' W 122°43'0 0.0
2018-Jan-08 23:43N 45°34' W 122°43'0 0.0
2018-Jan-08 23:28N 45°34' W 122°43'0 0.0
2018-Jan-08 22:58N 45°34' W 122°43'0 0.0
2018-Jan-08 22:22N 45°34' W 122°43'0 0.0
2018-Jan-08 21:58N 45°34' W 122°43'0 0.0
2018-Jan-08 21:28N 45°34' W 122°43'0 0.0
2018-Jan-08 20:58N 45°34' W 122°43'0 0.0
2018-Jan-08 20:22N 45°34' W 122°43'0 0.0
2018-Jan-08 19:58N 45°34' W 122°43'0 0.0
2018-Jan-08 19:27N 45°34' W 122°43'0 0.0
2018-Jan-08 18:57N 45°34' W 122°43'0 0.0
2018-Jan-08 18:27N 45°34' W 122°43'0 0.0
2018-Jan-08 17:45N 45°34' W 122°43'0 0.0
2018-Jan-08 17:28N 45°34' W 122°43'0 0.0
2018-Jan-08 16:58N 45°34' W 122°43'0 0.0
2018-Jan-08 16:28N 45°34' W 122°43'0 0.0
2018-Jan-08 15:58N 45°34' W 122°43'0 0.0
2018-Jan-08 15:28N 45°34' W 122°43'0 0.0
2018-Jan-08 14:55N 45°34' W 122°43'0 0.0
2018-Jan-08 14:30N 45°34' W 122°43'0 0.0
2018-Jan-08 13:54N 45°34' W 122°43'0 0.0
2018-Jan-08 13:30N 45°34' W 122°43'0 0.0
2018-Jan-08 12:52N 45°34' W 122°43'0 0.0
2018-Jan-08 12:25N 45°34' W 122°43'  
Track history (hours):
 
Tides and Currents Weather Stations Pressure Air Temp Water Temp Dewpoint Dewpoint Depression Visibility Wind Speed Wind Dir Waves Ship Positions

CG Bluebell

Last reported at 2018-Jan-18 11:59 UTC. Time now 2018-Jan-18 12:14 UTC.
Position N 45°34' W 122°43'.

Length 29 m; draft 2 m.

Type: Military. MMSI: 369493484.

Date/timePositionNaut miles runAvg speedWind from/ knotsBaromVisibWave heightAir tempDewpointWater temp
2018-Jan-18 11:59N 45°34' W 122°43'0 0.0
2018-Jan-18 11:17N 45°34' W 122°43'0 0.0
2018-Jan-18 10:59N 45°34' W 122°43'0 0.0
2018-Jan-18 10:26N 45°34' W 122°43'0 0.0
2018-Jan-18 09:56N 45°34' W 122°43'0 0.0
2018-Jan-18 09:17N 45°34' W 122°43'0 0.0
2018-Jan-18 08:53N 45°34' W 122°43'0 0.0
2018-Jan-18 08:26N 45°34' W 122°43'0 0.0
2018-Jan-18 07:56N 45°34' W 122°43'0 0.0
2018-Jan-18 07:20N 45°34' W 122°43'0 0.0
2018-Jan-18 06:53N 45°34' W 122°43'0 0.0
2018-Jan-18 06:11N 45°34' W 122°43'0 0.0
2018-Jan-18 05:53N 45°34' W 122°43'0 0.0
2018-Jan-18 05:26N 45°34' W 122°43'0 0.0
2018-Jan-18 04:53N 45°34' W 122°43'0 0.0
2018-Jan-18 03:53N 45°34' W 122°43'0 0.0
2018-Jan-18 03:29N 45°34' W 122°43'0 0.0
2018-Jan-18 02:53N 45°34' W 122°43'0 0.0
2018-Jan-18 02:29N 45°34' W 122°43'0 0.0
2018-Jan-18 01:17N 45°34' W 122°43'0 0.0
2018-Jan-18 00:56N 45°34' W 122°43'0 0.0
2018-Jan-17 23:47N 45°34' W 122°43'  
2018-Jan-12 14:29N 45°34' W 122°43'0 0.0
2018-Jan-12 13:59N 45°34' W 122°43'0 0.0
2018-Jan-12 13:24N 45°34' W 122°43'0 0.0
2018-Jan-12 13:00N 45°34' W 122°43'0 0.0
2018-Jan-12 12:20N 45°34' W 122°43'0 0.0
2018-Jan-12 12:00N 45°34' W 122°43'0 0.0
2018-Jan-12 11:26N 45°34' W 122°43'0 0.0
2018-Jan-12 10:17N 45°34' W 122°43'0 0.0
2018-Jan-12 09:53N 45°34' W 122°43'0 0.0
2018-Jan-12 09:17N 45°34' W 122°43'0 0.0
2018-Jan-12 08:59N 45°34' W 122°43'0 0.0
2018-Jan-12 07:44N 45°34' W 122°43'0 0.0
2018-Jan-12 07:29N 45°34' W 122°43'0 0.0
2018-Jan-12 06:59N 45°34' W 122°43'0 0.0
2018-Jan-12 06:29N 45°34' W 122°43'0 0.0
2018-Jan-12 05:56N 45°34' W 122°43'0 0.0
2018-Jan-12 04:50N 45°34' W 122°43'0 0.0
2018-Jan-12 04:26N 45°34' W 122°43'0 0.0
2018-Jan-12 04:00N 45°34' W 122°43'0 0.0
2018-Jan-12 03:24N 45°34' W 122°43'0 0.0
2018-Jan-12 02:33N 45°34' W 122°43'0 0.0
2018-Jan-12 02:12N 45°34' W 122°43'0 0.0
2018-Jan-12 01:36N 45°34' W 122°43'0 0.0
2018-Jan-12 01:15N 45°34' W 122°43'0 0.0
2018-Jan-12 01:00N 45°34' W 122°43'0 0.0
2018-Jan-12 00:29N 45°34' W 122°43'0 0.0
2018-Jan-11 23:59N 45°34' W 122°43'2 5.1
2018-Jan-11 23:30N 45°36' W 122°46'4 7.6
2018-Jan-11 23:00N 45°39' W 122°46'510.1
2018-Jan-11 22:30N 45°37' W 122°39'510.4
2018-Jan-11 22:00N 45°36' W 122°32'510.4
2018-Jan-11 21:30N 45°34' W 122°25'510.0
2018-Jan-11 21:00N 45°33' W 122°18'510.3
2018-Jan-11 20:30N 45°34' W 122°11'1 0.0
2018-Jan-10 20:18N 45°35' W 122°10'3 7.9
2018-Jan-10 19:57N 45°35' W 122°06'3 6.1
2018-Jan-10 19:30N 45°35' W 122°10'1 1.3
2018-Jan-10 18:59N 45°34' W 122°11'0 0.0
2018-Jan-10 18:30N 45°34' W 122°11'0 0.1
2018-Jan-10 18:00N 45°34' W 122°11'0 0.1
2018-Jan-10 17:30N 45°34' W 122°11'2 4.1
2018-Jan-10 17:00N 45°33' W 122°14'4 7.0
2018-Jan-10 16:30N 45°33' W 122°19'3 5.5
2018-Jan-10 15:56N 45°34' W 122°23'0 0.1
2018-Jan-10 12:34N 45°35' W 122°23'0 0.0
2018-Jan-10 12:10N 45°35' W 122°23'0 0.0
2018-Jan-10 11:58N 45°35' W 122°23'0 0.0
2018-Jan-10 11:28N 45°35' W 122°23'0 0.0
2018-Jan-10 10:40N 45°35' W 122°23'0 0.0
2018-Jan-10 10:28N 45°35' W 122°23'0 0.0
2018-Jan-10 09:22N 45°35' W 122°23'0 0.0
2018-Jan-10 08:52N 45°35' W 122°23'0 0.0
2018-Jan-10 07:35N 45°35' W 122°23'0 0.0
2018-Jan-10 07:29N 45°35' W 122°23'0 0.0
2018-Jan-10 06:59N 45°35' W 122°23'0 0.0
2018-Jan-10 06:17N 45°35' W 122°23'0 0.0
2018-Jan-10 05:58N 45°35' W 122°23'0 0.0
2018-Jan-10 05:28N 45°35' W 122°23'0 0.0
2018-Jan-10 04:52N 45°35' W 122°23'0 0.0
2018-Jan-10 04:28N 45°35' W 122°23'0 0.0
2018-Jan-10 04:00N 45°35' W 122°23'1 2.1
2018-Jan-10 03:30N 45°34' W 122°21'9 9.3
2018-Jan-10 02:32N 45°35' W 122°09'5 2.3
2018-Jan-10 00:24N 45°37' W 122°02'3 3.5
2018-Jan-09 23:29N 45°35' W 122°06'2 1.6
2018-Jan-09 22:23N 45°35' W 122°09'2 4.8
2018-Jan-09 22:00N 45°35' W 122°11'0 0.1
2018-Jan-09 21:29N 45°34' W 122°11'2 4.6
2018-Jan-09 21:00N 45°33' W 122°14'2 4.7
2018-Jan-09 20:30N 45°33' W 122°17'4 7.1
2018-Jan-09 20:00N 45°34' W 122°22'3 6.7
2018-Jan-09 19:30N 45°34' W 122°26'4 7.2
2018-Jan-09 19:00N 45°35' W 122°31'4 7.4
2018-Jan-09 18:30N 45°36' W 122°36'4 7.5
2018-Jan-09 18:00N 45°38' W 122°41'3 5.1
2018-Jan-09 17:31N 45°39' W 122°44'3 5.2
2018-Jan-09 17:00N 45°37' W 122°47'3 6.5
2018-Jan-09 16:30N 45°35' W 122°45'1 0.9
2018-Jan-09 15:27N 45°34' W 122°43'0 0.0
2018-Jan-09 14:55N 45°34' W 122°43'0 0.0
2018-Jan-09 14:22N 45°34' W 122°43'0 0.0
2018-Jan-09 13:57N 45°34' W 122°43'0 0.0
2018-Jan-09 13:28N 45°34' W 122°43'0 0.0
2018-Jan-09 12:58N 45°34' W 122°43'0 0.0
2018-Jan-09 12:30N 45°34' W 122°43'0 0.0
2018-Jan-09 11:52N 45°34' W 122°43'0 0.0
2018-Jan-09 11:24N 45°34' W 122°43'0 0.0
2018-Jan-09 10:52N 45°34' W 122°43'0 0.0
2018-Jan-09 10:25N 45°34' W 122°43'0 0.0
2018-Jan-09 09:55N 45°34' W 122°43'0 0.0
2018-Jan-09 09:22N 45°34' W 122°43'0 0.0
2018-Jan-09 08:46N 45°34' W 122°43'0 0.0
2018-Jan-09 08:28N 45°34' W 122°43'0 0.0
2018-Jan-09 07:52N 45°34' W 122°43'0 0.0
2018-Jan-09 07:19N 45°34' W 122°43'0 0.0
2018-Jan-09 06:40N 45°34' W 122°43'0 0.0
2018-Jan-09 06:19N 45°34' W 122°43'0 0.0
2018-Jan-09 06:00N 45°34' W 122°43'0 0.0
2018-Jan-09 05:24N 45°34' W 122°43'0 0.0
2018-Jan-09 04:58N 45°34' W 122°43'0 0.0
2018-Jan-09 04:22N 45°34' W 122°43'0 0.0
2018-Jan-09 03:57N 45°34' W 122°43'0 0.0
2018-Jan-09 03:25N 45°34' W 122°43'0 0.0
2018-Jan-09 02:57N 45°34' W 122°43'0 0.0
2018-Jan-09 02:25N 45°34' W 122°43'0 0.0
2018-Jan-09 01:49N 45°34' W 122°43'0 0.0
2018-Jan-09 01:28N 45°34' W 122°43'0 0.0
2018-Jan-09 00:40N 45°34' W 122°43'0 0.0
2018-Jan-09 00:22N 45°34' W 122°43'0 0.0
2018-Jan-08 23:43N 45°34' W 122°43'0 0.0
2018-Jan-08 23:28N 45°34' W 122°43'0 0.0
2018-Jan-08 22:58N 45°34' W 122°43'0 0.0
2018-Jan-08 22:22N 45°34' W 122°43'0 0.0
2018-Jan-08 21:58N 45°34' W 122°43'0 0.0
2018-Jan-08 21:28N 45°34' W 122°43'0 0.0
2018-Jan-08 20:58N 45°34' W 122°43'0 0.0
2018-Jan-08 20:22N 45°34' W 122°43'0 0.0
2018-Jan-08 19:58N 45°34' W 122°43'0 0.0
2018-Jan-08 19:27N 45°34' W 122°43'0 0.0
2018-Jan-08 18:57N 45°34' W 122°43'0 0.0
2018-Jan-08 18:27N 45°34' W 122°43'0 0.0
2018-Jan-08 17:45N 45°34' W 122°43'0 0.0
2018-Jan-08 17:28N 45°34' W 122°43'0 0.0
2018-Jan-08 16:58N 45°34' W 122°43'0 0.0
2018-Jan-08 16:28N 45°34' W 122°43'0 0.0
2018-Jan-08 15:58N 45°34' W 122°43'0 0.0
2018-Jan-08 15:28N 45°34' W 122°43'0 0.0
2018-Jan-08 14:55N 45°34' W 122°43'0 0.0
2018-Jan-08 14:30N 45°34' W 122°43'0 0.0
2018-Jan-08 13:54N 45°34' W 122°43'0 0.0
2018-Jan-08 13:30N 45°34' W 122°43'0 0.0
2018-Jan-08 12:52N 45°34' W 122°43'0 0.0
2018-Jan-08 12:25N 45°34' W 122°43'  

Dump ship's entire track history